createdAt,value
2022-09-29T00:01:17.846Z,3.30
2022-09-29T00:03:46.134Z,3.43
2022-09-29T00:06:17.748Z,3.17
2022-09-29T00:08:48.107Z,3.50
2022-09-29T00:11:18.883Z,3.47
2022-09-29T00:13:49.168Z,3.50
2022-09-29T00:16:17.784Z,3.50
2022-09-29T00:18:46.017Z,2.97
2022-09-29T00:21:17.390Z,3.33
2022-09-29T00:23:47.336Z,3.60
2022-09-29T00:26:19.358Z,3.37
2022-09-29T00:28:52.635Z,3.10
2022-09-29T00:31:21.500Z,3.20
2022-09-29T00:33:49.984Z,2.90
2022-09-29T00:36:21.186Z,3.27
2022-09-29T00:38:52.732Z,3.63
2022-09-29T00:41:24.917Z,3.13
2022-09-29T00:43:58.436Z,3.47
2022-09-29T00:46:35.516Z,2.90
2022-09-29T00:49:09.548Z,3.00
2022-09-29T00:51:41.959Z,2.57
2022-09-29T00:54:11.830Z,3.00
2022-09-29T00:56:42.884Z,3.10
2022-09-29T00:59:15.886Z,2.90
2022-09-29T01:01:44.174Z,2.70
2022-09-29T01:04:17.391Z,2.60
2022-09-29T01:06:49.755Z,2.97
2022-09-29T01:09:23.565Z,2.80
2022-09-29T01:11:52.890Z,2.70
2022-09-29T01:14:23.855Z,2.20
2022-09-29T01:16:52.310Z,2.40
2022-09-29T01:19:31.788Z,2.50
2022-09-29T01:22:12.803Z,2.50
2022-09-29T01:25:12.563Z,2.67
2022-09-29T01:28:23.094Z,2.87
2022-09-29T01:31:13.511Z,2.90
2022-09-29T01:33:51.758Z,2.97
2022-09-29T01:36:33.747Z,3.10
2022-09-29T01:39:14.730Z,2.90
2022-09-29T01:41:51.184Z,3.10
2022-09-29T01:44:26.949Z,2.87
2022-09-29T01:47:01.869Z,2.70
2022-09-29T01:49:35.187Z,2.97
2022-09-29T01:52:09.077Z,3.13
2022-09-29T01:54:45.813Z,2.97
2022-09-29T01:57:19.468Z,2.90
2022-09-29T01:59:55.555Z,3.03
2022-09-29T02:02:36.092Z,3.20
2022-09-29T02:05:10.979Z,3.17
2022-09-29T02:07:44.650Z,3.30
2022-09-29T02:10:21.284Z,3.23
2022-09-29T02:12:51.962Z,3.40
2022-09-29T02:15:26.962Z,3.10
2022-09-29T02:18:07.197Z,3.53
2022-09-29T02:20:36.099Z,3.30
2022-09-29T02:23:05.566Z,3.23
2022-09-29T02:25:39.889Z,3.23
2022-09-29T02:28:09.158Z,2.87
2022-09-29T02:30:37.574Z,2.90
2022-09-29T02:33:07.245Z,3.20
2022-09-29T02:35:47.724Z,3.40
2022-09-29T02:38:27.711Z,3.10
2022-09-29T02:41:07.292Z,3.03
2022-09-29T02:44:01.376Z,3.03
2022-09-29T02:46:45.017Z,3.17
2022-09-29T02:49:44.389Z,2.70
2022-09-29T02:52:24.785Z,3.00
2022-09-29T02:55:05.503Z,3.20
2022-09-29T02:57:42.650Z,2.90
2022-09-29T03:00:15.387Z,3.20
2022-09-29T03:02:45.830Z,3.07
2022-09-29T03:05:19.032Z,2.90
2022-09-29T03:07:47.477Z,3.20
2022-09-29T03:10:17.992Z,3.27
2022-09-29T03:12:46.704Z,3.23
2022-09-29T03:15:15.234Z,3.10
2022-09-29T03:17:43.456Z,3.00
2022-09-29T03:20:12.266Z,3.03
2022-09-29T03:22:41.836Z,3.00
2022-09-29T03:25:10.545Z,3.20
2022-09-29T03:27:39.283Z,2.40
2022-09-29T03:30:10.055Z,3.23
2022-09-29T03:32:38.258Z,2.60
2022-09-29T03:35:08.508Z,2.73
2022-09-29T03:37:36.853Z,2.73
2022-09-29T03:40:08.014Z,2.80
2022-09-29T03:42:36.204Z,2.73
2022-09-29T03:45:05.257Z,2.80
2022-09-29T03:47:33.573Z,2.63
2022-09-29T03:50:02.231Z,2.53
2022-09-29T03:52:30.856Z,2.67
2022-09-29T03:54:59.117Z,2.63
2022-09-29T03:57:29.121Z,3.07
2022-09-29T03:59:57.413Z,3.23
2022-09-29T04:02:29.938Z,2.57
2022-09-29T04:04:58.241Z,2.57
2022-09-29T04:07:29.046Z,3.30
2022-09-29T04:10:00.348Z,3.40
2022-09-29T04:12:29.998Z,2.80
2022-09-29T04:14:58.508Z,2.87
2022-09-29T04:17:26.777Z,3.37
2022-09-29T04:19:55.018Z,2.67
2022-09-29T04:22:23.330Z,3.30
2022-09-29T04:24:52.129Z,3.60
2022-09-29T04:27:20.841Z,4.10
2022-09-29T04:29:50.820Z,3.67
2022-09-29T04:32:20.996Z,3.83
2022-09-29T04:34:49.376Z,3.40
2022-09-29T04:37:17.667Z,3.63
2022-09-29T04:39:46.076Z,3.63
2022-09-29T04:42:14.505Z,3.00
2022-09-29T04:44:42.844Z,3.53
2022-09-29T04:47:12.420Z,3.03
2022-09-29T04:49:41.398Z,3.83
2022-09-29T04:52:12.240Z,3.93
2022-09-29T04:54:41.120Z,4.10
2022-09-29T04:57:10.569Z,3.60
2022-09-29T04:59:39.312Z,3.00
2022-09-29T05:02:07.833Z,2.47
2022-09-29T05:04:37.490Z,2.87
2022-09-29T05:07:05.696Z,2.90
2022-09-29T05:09:34.277Z,2.73
2022-09-29T05:12:03.260Z,2.90
2022-09-29T05:14:31.564Z,2.60
2022-09-29T05:17:00.439Z,2.87
2022-09-29T05:19:28.759Z,2.60
2022-09-29T05:21:58.382Z,2.57
2022-09-29T05:24:26.824Z,2.70
2022-09-29T05:26:58.429Z,3.00
2022-09-29T05:29:26.999Z,2.37
2022-09-29T05:31:55.345Z,2.53
2022-09-29T05:34:23.737Z,2.40
2022-09-29T05:36:52.056Z,18.60
2022-09-29T05:39:21.852Z,5.37
2022-09-29T05:41:50.523Z,2.60
2022-09-29T05:44:18.865Z,2.80
2022-09-29T05:46:47.326Z,3.53
2022-09-29T05:49:15.652Z,3.53
2022-09-29T05:51:43.916Z,3.60
2022-09-29T05:54:12.159Z,3.20
2022-09-29T05:56:45.158Z,3.60
2022-09-29T05:59:14.093Z,4.57
2022-09-29T06:01:42.352Z,4.67
2022-09-29T06:04:12.241Z,4.73
2022-09-29T06:06:41.076Z,5.07
2022-09-29T06:09:36.066Z,5.40
2022-09-29T06:12:05.768Z,5.93
2022-09-29T06:14:34.020Z,4.93
2022-09-29T06:17:02.218Z,4.57
2022-09-29T06:19:30.421Z,5.27
2022-09-29T06:21:58.970Z,5.73
2022-09-29T06:24:27.198Z,5.13
2022-09-29T06:26:55.486Z,5.33
2022-09-29T06:29:25.160Z,5.27
2022-09-29T06:31:53.637Z,5.40
2022-09-29T06:34:22.066Z,5.90
2022-09-29T06:37:22.494Z,5.93
2022-09-29T06:39:50.693Z,5.87
2022-09-29T06:42:18.905Z,5.60
2022-09-29T06:44:48.479Z,5.30
2022-09-29T06:47:16.790Z,7.50
2022-09-29T06:49:48.245Z,7.77
2022-09-29T06:52:32.457Z,6.60
2022-09-29T06:55:00.736Z,6.10
2022-09-29T06:57:29.081Z,5.10
2022-09-29T06:59:58.731Z,5.23
2022-09-29T07:02:27.047Z,5.40
2022-09-29T07:04:55.396Z,4.50
2022-09-29T07:07:23.640Z,4.50
2022-09-29T07:09:51.910Z,4.70
2022-09-29T07:12:20.308Z,5.90
2022-09-29T07:14:48.548Z,7.20
2022-09-29T07:17:18.088Z,6.80
2022-09-29T07:19:46.394Z,6.87
2022-09-29T07:22:14.628Z,7.13
2022-09-29T07:24:43.215Z,5.87
2022-09-29T07:27:11.381Z,5.27
2022-09-29T07:29:39.690Z,3.80
2022-09-29T07:32:14.054Z,5.00
2022-09-29T07:34:48.941Z,4.97
2022-09-29T07:37:17.129Z,4.70
2022-09-29T07:39:45.369Z,3.70
2022-09-29T07:42:13.590Z,4.60
2022-09-29T07:44:41.807Z,4.03
2022-09-29T07:47:10.029Z,4.70
2022-09-29T07:49:38.496Z,4.50
2022-09-29T07:52:08.493Z,4.30
2022-09-29T07:54:36.738Z,4.17
2022-09-29T07:57:05.110Z,4.33
2022-09-29T07:59:33.651Z,4.03
2022-09-29T08:02:26.038Z,4.80
2022-09-29T08:05:00.025Z,4.63
2022-09-29T08:07:31.072Z,4.57
2022-09-29T08:10:12.898Z,4.63
2022-09-29T08:12:44.827Z,4.60
2022-09-29T08:15:13.143Z,4.37
2022-09-29T08:17:41.768Z,4.50
2022-09-29T08:20:10.529Z,4.43
2022-09-29T08:22:40.155Z,4.33
2022-09-29T08:25:09.226Z,3.93
2022-09-29T08:27:47.943Z,3.83
2022-09-29T08:30:21.638Z,3.60
2022-09-29T08:32:53.388Z,3.67
2022-09-29T08:35:21.624Z,4.27
2022-09-29T08:37:51.186Z,3.70
2022-09-29T08:40:19.788Z,3.70
2022-09-29T08:42:59.269Z,3.63
2022-09-29T08:45:33.301Z,3.97
2022-09-29T08:48:17.830Z,3.83
2022-09-29T08:50:53.026Z,3.33
2022-09-29T08:53:28.590Z,3.37
2022-09-29T08:56:05.051Z,3.67
2022-09-29T08:58:34.061Z,3.60
2022-09-29T09:01:18.970Z,3.30
2022-09-29T09:04:22.050Z,3.13
2022-09-29T09:07:04.409Z,3.43
2022-09-29T09:09:56.062Z,3.20
2022-09-29T09:12:52.047Z,3.37
2022-09-29T09:15:38.513Z,3.23
2022-09-29T09:18:32.856Z,3.43
2022-09-29T09:21:09.206Z,3.20
2022-09-29T09:23:56.813Z,3.20
2022-09-29T09:26:37.618Z,3.20
2022-09-29T09:29:13.746Z,3.10
2022-09-29T09:31:46.022Z,3.13
2022-09-29T09:34:22.600Z,4.03
2022-09-29T09:37:07.770Z,3.20
2022-09-29T09:39:42.149Z,4.23
2022-09-29T09:42:19.153Z,3.23
2022-09-29T09:44:53.112Z,3.50
2022-09-29T09:47:27.458Z,3.50
2022-09-29T09:50:00.441Z,3.37
2022-09-29T09:52:38.358Z,3.90
2022-09-29T09:55:11.692Z,3.20
2022-09-29T09:58:02.635Z,4.67
2022-09-29T10:00:36.506Z,11.37
2022-09-29T10:03:08.581Z,10.53
2022-09-29T10:05:41.283Z,18.87
2022-09-29T10:08:38.486Z,15.90
2022-09-29T10:11:24.605Z,34.17
2022-09-29T10:14:02.179Z,18.60
2022-09-29T10:16:41.535Z,6.80
2022-09-29T10:19:11.378Z,3.07
2022-09-29T10:21:41.981Z,2.27
2022-09-29T10:24:25.052Z,5.57
2022-09-29T10:26:57.560Z,6.87
2022-09-29T10:29:34.913Z,9.50
2022-09-29T10:32:07.066Z,23.50
2022-09-29T10:34:39.896Z,3.00
2022-09-29T10:37:23.595Z,2.73
2022-09-29T10:39:52.708Z,17.27
2022-09-29T10:42:26.217Z,4.27
2022-09-29T10:45:14.073Z,1.97
2022-09-29T10:47:44.078Z,2.10
2022-09-29T10:50:18.937Z,2.60
2022-09-29T10:52:54.521Z,2.20
2022-09-29T10:55:25.525Z,1.77
2022-09-29T10:57:57.040Z,7.63
2022-09-29T11:00:34.443Z,1.50
2022-09-29T11:03:09.601Z,2.20
2022-09-29T11:05:38.777Z,2.80
2022-09-29T11:08:14.296Z,4.40
2022-09-29T11:10:43.553Z,3.97
2022-09-29T11:13:38.408Z,3.03
2022-09-29T11:16:17.764Z,9.03
2022-09-29T11:18:50.586Z,2.53
2022-09-29T11:22:01.626Z,2.23
2022-09-29T11:24:44.610Z,2.40
2022-09-29T11:27:26.978Z,2.00
2022-09-29T11:30:05.157Z,1.95
2022-09-29T11:32:50.925Z,12.13
2022-09-29T11:35:38.899Z,12.70
2022-09-29T11:38:35.585Z,3.00
2022-09-29T11:41:26.305Z,2.60
2022-09-29T11:43:57.719Z,2.10
2022-09-29T11:46:38.955Z,2.10
2022-09-29T11:49:39.666Z,2.20
2022-09-29T11:52:34.334Z,3.13
2022-09-29T11:55:30.052Z,2.70
2022-09-29T11:58:13.496Z,2.43
2022-09-29T12:01:00.186Z,2.73
2022-09-29T12:04:09.663Z,2.30
2022-09-29T12:06:55.696Z,2.57
2022-09-29T12:09:55.808Z,2.97
2022-09-29T12:12:33.688Z,2.30
2022-09-29T12:15:21.478Z,1.83
2022-09-29T12:17:55.786Z,1.67
2022-09-29T12:20:28.141Z,3.67
2022-09-29T12:23:02.123Z,13.02
2022-09-29T12:25:35.549Z,6.38
2022-09-29T12:28:08.561Z,2.40
2022-09-29T12:30:46.095Z,4.60
2022-09-29T12:33:21.898Z,3.25
2022-09-29T12:36:05.197Z,2.20
2022-09-29T12:38:42.342Z,1.63
2022-09-29T12:41:16.053Z,1.40
2022-09-29T12:43:50.503Z,1.10
2022-09-29T12:46:25.568Z,1.52
2022-09-29T12:49:04.573Z,1.25
2022-09-29T12:51:39.348Z,1.50
2022-09-29T12:54:17.970Z,1.50
2022-09-29T12:56:53.264Z,1.38
2022-09-29T12:59:32.816Z,1.40
2022-09-29T13:02:28.047Z,1.30
2022-09-29T13:05:21.649Z,1.40
2022-09-29T13:08:46.967Z,2.85
2022-09-29T13:11:43.404Z,1.40
2022-09-29T13:14:53.880Z,1.77
2022-09-29T13:17:41.746Z,1.40
2022-09-29T13:20:44.434Z,1.20
2022-09-29T13:23:55.764Z,5.03
2022-09-29T13:26:58.793Z,9.05
2022-09-29T13:29:29.070Z,6.25
2022-09-29T13:31:58.776Z,1.30
2022-09-29T13:34:32.988Z,1.40
2022-09-29T13:37:13.341Z,1.27
2022-09-29T13:39:44.781Z,1.20
2022-09-29T13:42:43.703Z,1.52
2022-09-29T13:45:44.633Z,6.75
2022-09-29T13:48:39.411Z,2.67
2022-09-29T13:51:48.404Z,3.05
2022-09-29T13:54:39.252Z,5.07
2022-09-29T13:57:27.137Z,2.72
2022-09-29T14:00:21.851Z,1.80
2022-09-29T14:03:50.268Z,3.10
2022-09-29T14:06:40.333Z,1.85
2022-09-29T14:09:17.424Z,2.20
2022-09-29T14:11:51.044Z,2.30
2022-09-29T14:14:24.484Z,2.80
2022-09-29T14:16:58.186Z,2.17
2022-09-29T14:19:51.645Z,1.70
2022-09-29T14:23:00.068Z,1.30
2022-09-29T14:25:57.306Z,4.57
2022-09-29T14:28:42.110Z,3.75
2022-09-29T14:31:24.233Z,1.90
2022-09-29T14:33:54.850Z,34.17
2022-09-29T14:36:26.694Z,14.53
2022-09-29T14:39:24.542Z,4.00
2022-09-29T14:41:47.518Z,3.53
2022-09-29T14:44:22.587Z,2.08
2022-09-29T14:47:52.630Z,1.43
2022-09-29T14:51:09.246Z,1.33
2022-09-29T14:54:03.980Z,1.33
2022-09-29T14:56:51.842Z,1.57
2022-09-29T14:59:36.041Z,7.17
2022-09-29T15:02:21.843Z,6.30
2022-09-29T15:04:50.690Z,8.33
2022-09-29T15:07:23.290Z,15.80
2022-09-29T15:09:54.423Z,4.90
2022-09-29T15:12:26.501Z,7.17
2022-09-29T15:14:55.301Z,22.77
2022-09-29T15:17:45.254Z,10.00
2022-09-29T15:20:24.130Z,5.40
2022-09-29T15:23:11.647Z,4.90
2022-09-29T15:25:41.837Z,5.03
2022-09-29T15:28:17.058Z,3.00
2022-09-29T15:30:47.538Z,2.87
2022-09-29T15:33:23.372Z,5.33
2022-09-29T15:35:55.975Z,3.10
2022-09-29T15:38:38.128Z,4.60
2022-09-29T15:41:17.749Z,8.10
2022-09-29T15:43:56.172Z,11.37
2022-09-29T15:46:27.559Z,15.40
2022-09-29T15:49:17.172Z,12.30
2022-09-29T15:51:56.875Z,7.63
2022-09-29T15:54:33.555Z,4.77
2022-09-29T15:57:19.187Z,8.13
2022-09-29T15:59:50.403Z,9.50
2022-09-29T16:02:25.506Z,4.07
2022-09-29T16:05:04.901Z,3.70
2022-09-29T16:07:36.672Z,4.93
2022-09-29T16:10:16.074Z,4.20
2022-09-29T16:12:51.142Z,3.20
2022-09-29T16:15:27.088Z,3.47
2022-09-29T16:17:55.655Z,2.47
2022-09-29T16:20:30.322Z,3.20
2022-09-29T16:23:07.121Z,4.80
2022-09-29T16:25:36.949Z,3.43
2022-09-29T16:28:07.377Z,4.97
2022-09-29T16:30:38.761Z,51.77
2022-09-29T16:33:16.827Z,50.67
2022-09-29T16:36:03.806Z,80.97
2022-09-29T16:38:36.068Z,18.53
2022-09-29T16:41:27.735Z,21.17
2022-09-29T16:44:13.916Z,25.27
2022-09-29T16:46:54.450Z,80.27
2022-09-29T16:49:26.281Z,76.87
2022-09-29T16:51:58.451Z,29.70
2022-09-29T16:54:30.692Z,19.30
2022-09-29T16:57:25.482Z,14.97
2022-09-29T16:59:56.535Z,11.30
2022-09-29T17:02:25.527Z,7.53
2022-09-29T17:04:56.161Z,11.57
2022-09-29T17:07:27.342Z,19.43
2022-09-29T17:09:58.577Z,10.70
2022-09-29T17:12:30.560Z,16.03
2022-09-29T17:14:59.738Z,10.83
2022-09-29T17:17:29.829Z,6.33
2022-09-29T17:19:58.077Z,4.67
2022-09-29T17:22:31.017Z,4.70
2022-09-29T17:24:59.789Z,4.30
2022-09-29T17:27:48.133Z,2.90
2022-09-29T17:30:22.507Z,2.50
2022-09-29T17:32:52.286Z,2.30
2022-09-29T17:35:29.668Z,2.13
2022-09-29T17:37:58.327Z,2.73
2022-09-29T17:40:30.577Z,3.70
2022-09-29T17:43:00.451Z,3.50
2022-09-29T17:45:32.264Z,5.83
2022-09-29T17:48:00.529Z,8.10
2022-09-29T17:50:32.682Z,10.97
2022-09-29T17:53:01.101Z,8.83
2022-09-29T17:55:29.326Z,9.23
2022-09-29T17:57:59.564Z,8.70
2022-09-29T18:00:30.271Z,9.33
2022-09-29T18:05:56.467Z,13.47
2022-09-29T18:08:27.488Z,8.17
2022-09-29T18:10:57.856Z,6.30
2022-09-29T18:13:31.300Z,6.57
2022-09-29T18:16:01.968Z,5.03
2022-09-29T18:18:30.704Z,4.13
2022-09-29T18:20:59.584Z,6.77
2022-09-29T18:23:31.211Z,10.23
2022-09-29T18:25:59.512Z,39.97
2022-09-29T18:28:29.205Z,32.00
2022-09-29T18:31:08.867Z,33.50
2022-09-29T18:33:41.591Z,21.47
2022-09-29T18:36:11.502Z,23.57
2022-09-29T18:38:39.756Z,70.73
2022-09-29T18:41:11.707Z,50.37
2022-09-29T18:43:41.290Z,55.27
2022-09-29T18:46:10.026Z,29.37
2022-09-29T18:48:38.322Z,14.93
2022-09-29T18:51:06.990Z,17.13
2022-09-29T18:53:35.565Z,21.13
2022-09-29T18:56:05.422Z,22.67
2022-09-29T18:58:33.725Z,23.07
2022-09-29T19:01:03.317Z,16.17
2022-09-29T19:03:32.561Z,35.00
2022-09-29T19:06:03.063Z,24.93
2022-09-29T19:08:33.499Z,19.63
2022-09-29T19:11:04.605Z,15.30
2022-09-29T19:13:32.861Z,21.10
2022-09-29T19:16:03.794Z,24.30
2022-09-29T19:18:32.249Z,30.23
2022-09-29T19:21:00.707Z,11.87
2022-09-29T19:23:29.209Z,5.37
2022-09-29T19:25:58.432Z,4.47
2022-09-29T19:28:27.635Z,4.10
2022-09-29T19:30:56.806Z,16.17
2022-09-29T19:33:26.445Z,7.23
2022-09-29T19:35:55.922Z,14.93
2022-09-29T19:38:24.856Z,10.13
2022-09-29T19:40:53.112Z,12.33
2022-09-29T19:43:23.120Z,16.17
2022-09-29T19:45:51.386Z,9.33
2022-09-29T19:48:22.512Z,8.50
2022-09-29T19:51:15.766Z,8.40
2022-09-29T19:53:48.652Z,7.13
2022-09-29T19:56:18.452Z,6.33
2022-09-29T19:58:46.704Z,9.70
2022-09-29T20:01:15.007Z,7.33
2022-09-29T20:03:47.953Z,5.93
2022-09-29T20:06:17.754Z,6.33
2022-09-29T20:08:46.664Z,7.87
2022-09-29T20:11:15.408Z,5.60
2022-09-29T20:13:43.909Z,6.13
2022-09-29T20:16:12.148Z,6.50
2022-09-29T20:18:40.458Z,5.73
2022-09-29T20:21:09.848Z,5.33
2022-09-29T20:23:39.685Z,5.67
2022-09-29T20:26:09.574Z,5.57
2022-09-29T20:28:38.838Z,6.47
2022-09-29T20:31:07.635Z,7.90
2022-09-29T20:33:38.487Z,6.27
2022-09-29T20:36:07.434Z,4.93
2022-09-29T20:38:43.402Z,4.93
2022-09-29T20:41:12.619Z,4.67
2022-09-29T20:43:43.667Z,5.37
2022-09-29T20:46:14.705Z,5.43
2022-09-29T20:48:43.937Z,6.17
2022-09-29T20:51:16.176Z,5.83
2022-09-29T20:53:52.576Z,6.30
2022-09-29T20:56:20.833Z,6.10
2022-09-29T20:58:51.413Z,21.50
2022-09-29T21:01:21.844Z,11.97
2022-09-29T21:03:51.946Z,8.07
2022-09-29T21:06:20.732Z,6.07
2022-09-29T21:08:50.366Z,5.20
2022-09-29T21:11:18.834Z,6.40
2022-09-29T21:13:48.909Z,8.77
2022-09-29T21:16:17.253Z,8.00
2022-09-29T21:18:46.327Z,7.53
2022-09-29T21:21:14.630Z,6.90
2022-09-29T21:23:44.427Z,6.27
2022-09-29T21:26:17.113Z,6.53
2022-09-29T21:28:51.822Z,5.63
2022-09-29T21:31:22.895Z,6.20
2022-09-29T21:33:55.426Z,6.00
2022-09-29T21:36:25.334Z,5.50
2022-09-29T21:38:54.259Z,6.00
2022-09-29T21:41:26.270Z,6.70
2022-09-29T21:43:56.750Z,6.60
2022-09-29T21:46:28.479Z,7.27
2022-09-29T21:48:58.809Z,6.70
2022-09-29T21:51:29.795Z,7.20
2022-09-29T21:54:01.400Z,6.90
2022-09-29T21:56:33.922Z,6.93
2022-09-29T21:59:07.956Z,7.53
2022-09-29T22:01:36.530Z,6.80
2022-09-29T22:04:04.865Z,6.50
2022-09-29T22:06:36.058Z,6.97
2022-09-29T22:09:07.001Z,5.83
2022-09-29T22:11:39.106Z,6.33
2022-09-29T22:14:08.169Z,5.50
2022-09-29T22:16:36.936Z,5.50
2022-09-29T22:19:22.549Z,5.20
2022-09-29T22:21:52.375Z,4.97
2022-09-29T22:24:20.676Z,4.27
2022-09-29T22:26:50.599Z,5.17
2022-09-29T22:29:18.917Z,4.60
2022-09-29T22:31:47.248Z,4.90
2022-09-29T22:34:15.769Z,5.60
2022-09-29T22:36:44.217Z,5.70
2022-09-29T22:39:12.579Z,6.53
2022-09-29T22:41:41.142Z,7.17
2022-09-29T22:44:11.025Z,7.23
2022-09-29T22:46:39.345Z,6.60
2022-09-29T22:49:07.730Z,5.53
2022-09-29T22:51:35.956Z,4.67
2022-09-29T22:54:04.206Z,5.30
2022-09-29T22:56:32.478Z,5.53
2022-09-29T22:59:02.892Z,5.60
2022-09-29T23:01:33.791Z,6.07
2022-09-29T23:04:03.874Z,5.43
2022-09-29T23:06:32.505Z,4.20
2022-09-29T23:09:01.134Z,4.70
2022-09-29T23:11:30.019Z,2.57
2022-09-29T23:14:00.294Z,2.90
2022-09-29T23:16:33.342Z,3.37
2022-09-29T23:19:01.610Z,3.20
2022-09-29T23:21:29.820Z,3.00
2022-09-29T23:24:00.441Z,3.40
2022-09-29T23:26:30.428Z,3.27
2022-09-29T23:28:59.874Z,3.50
2022-09-29T23:31:28.764Z,3.67
2022-09-29T23:34:00.676Z,3.70
2022-09-29T23:36:31.100Z,4.30
2022-09-29T23:39:10.619Z,4.10
2022-09-29T23:41:42.239Z,4.00
2022-09-29T23:44:12.235Z,3.60
2022-09-29T23:46:42.130Z,3.40
2022-09-29T23:49:14.101Z,3.23
2022-09-29T23:51:44.963Z,3.23
2022-09-29T23:54:18.080Z,3.47
2022-09-29T23:56:47.057Z,3.50
2022-09-29T23:59:16.104Z,3.77
